sensor_id;sensor_type;location;lat;lon;timestamp;temperature;humidity
47174;DHT22;36730;49.036;9.094;2022-08-01T00:01:57;29.20;49.30
47174;DHT22;36730;49.036;9.094;2022-08-01T00:04:22;29.20;50.00
47174;DHT22;36730;49.036;9.094;2022-08-01T00:06:48;29.20;49.40
47174;DHT22;36730;49.036;9.094;2022-08-01T00:09:13;29.20;49.40
47174;DHT22;36730;49.036;9.094;2022-08-01T00:11:39;29.20;49.50
47174;DHT22;36730;49.036;9.094;2022-08-01T00:14:04;29.20;49.50
47174;DHT22;36730;49.036;9.094;2022-08-01T00:16:30;29.20;49.50
47174;DHT22;36730;49.036;9.094;2022-08-01T00:18:55;29.20;49.60
47174;DHT22;36730;49.036;9.094;2022-08-01T00:21:21;29.20;49.70
47174;DHT22;36730;49.036;9.094;2022-08-01T00:23:46;29.20;49.80
47174;DHT22;36730;49.036;9.094;2022-08-01T00:26:12;29.10;49.80
47174;DHT22;36730;49.036;9.094;2022-08-01T00:28:38;29.10;49.80
47174;DHT22;36730;49.036;9.094;2022-08-01T00:31:03;29.10;49.90
47174;DHT22;36730;49.036;9.094;2022-08-01T00:33:29;29.10;49.90
47174;DHT22;36730;49.036;9.094;2022-08-01T00:35:54;29.10;50.00
47174;DHT22;36730;49.036;9.094;2022-08-01T00:38:20;29.10;50.00
47174;DHT22;36730;49.036;9.094;2022-08-01T00:40:46;29.10;50.10
47174;DHT22;36730;49.036;9.094;2022-08-01T00:43:11;29.10;50.10
47174;DHT22;36730;49.036;9.094;2022-08-01T00:45:37;29.10;50.10
47174;DHT22;36730;49.036;9.094;2022-08-01T00:48:02;29.10;50.20
47174;DHT22;36730;49.036;9.094;2022-08-01T00:50:28;29.10;50.20
47174;DHT22;36730;49.036;9.094;2022-08-01T00:52:54;29.10;50.20
47174;DHT22;36730;49.036;9.094;2022-08-01T00:55:20;29.10;50.40
47174;DHT22;36730;49.036;9.094;2022-08-01T00:57:46;29.00;50.40
47174;DHT22;36730;49.036;9.094;2022-08-01T01:00:12;29.00;50.40
47174;DHT22;36730;49.036;9.094;2022-08-01T01:02:38;29.10;50.80
47174;DHT22;36730;49.036;9.094;2022-08-01T01:05:03;29.00;51.20
47174;DHT22;36730;49.036;9.094;2022-08-01T01:07:32;29.10;50.70
47174;DHT22;36730;49.036;9.094;2022-08-01T01:10:05;29.00;50.70
47174;DHT22;36730;49.036;9.094;2022-08-01T01:17:53;29.00;50.80
47174;DHT22;36730;49.036;9.094;2022-08-01T01:20:20;29.00;50.90
47174;DHT22;36730;49.036;9.094;2022-08-01T01:30:25;29.00;51.20
47174;DHT22;36730;49.036;9.094;2022-08-01T01:32:53;28.90;51.30
47174;DHT22;36730;49.036;9.094;2022-08-01T01:35:23;28.90;51.30
47174;DHT22;36730;49.036;9.094;2022-08-01T01:37:49;29.00;51.40
47174;DHT22;36730;49.036;9.094;2022-08-01T01:40:16;28.90;51.50
47174;DHT22;36730;49.036;9.094;2022-08-01T01:42:43;28.90;51.50
47174;DHT22;36730;49.036;9.094;2022-08-01T01:45:09;29.00;51.60
47174;DHT22;36730;49.036;9.094;2022-08-01T01:47:36;28.90;51.60
47174;DHT22;36730;49.036;9.094;2022-08-01T01:50:03;28.90;51.70
47174;DHT22;36730;49.036;9.094;2022-08-01T01:52:29;28.90;51.90
47174;DHT22;36730;49.036;9.094;2022-08-01T01:54:56;28.90;52.00
47174;DHT22;36730;49.036;9.094;2022-08-01T01:57:24;28.90;52.10
47174;DHT22;36730;49.036;9.094;2022-08-01T01:59:50;28.90;52.10
47174;DHT22;36730;49.036;9.094;2022-08-01T02:02:16;28.90;52.20
47174;DHT22;36730;49.036;9.094;2022-08-01T02:04:43;28.90;52.30
47174;DHT22;36730;49.036;9.094;2022-08-01T02:07:10;28.90;52.50
47174;DHT22;36730;49.036;9.094;2022-08-01T02:09:37;28.90;52.40
47174;DHT22;36730;49.036;9.094;2022-08-01T02:12:05;28.90;52.50
47174;DHT22;36730;49.036;9.094;2022-08-01T02:14:32;28.90;52.60
47174;DHT22;36730;49.036;9.094;2022-08-01T02:16:58;28.90;52.60
47174;DHT22;36730;49.036;9.094;2022-08-01T02:19:24;28.90;52.70
47174;DHT22;36730;49.036;9.094;2022-08-01T02:21:57;28.80;52.70
47174;DHT22;36730;49.036;9.094;2022-08-01T02:24:29;28.80;53.00
47174;DHT22;36730;49.036;9.094;2022-08-01T02:26:57;28.80;53.20
47174;DHT22;36730;49.036;9.094;2022-08-01T02:29:29;28.80;53.20
47174;DHT22;36730;49.036;9.094;2022-08-01T02:31:58;28.80;53.30
47174;DHT22;36730;49.036;9.094;2022-08-01T02:34:25;28.80;53.30
47174;DHT22;36730;49.036;9.094;2022-08-01T02:36:53;28.80;53.50
47174;DHT22;36730;49.036;9.094;2022-08-01T02:39:19;28.80;53.50
47174;DHT22;36730;49.036;9.094;2022-08-01T02:41:47;28.80;53.50
47174;DHT22;36730;49.036;9.094;2022-08-01T02:44:19;28.80;53.60
47174;DHT22;36730;49.036;9.094;2022-08-01T02:46:57;28.80;53.60
47174;DHT22;36730;49.036;9.094;2022-08-01T02:49:29;28.80;53.70
47174;DHT22;36730;49.036;9.094;2022-08-01T02:51:56;28.80;53.70
47174;DHT22;36730;49.036;9.094;2022-08-01T02:54:22;28.80;54.00
47174;DHT22;36730;49.036;9.094;2022-08-01T02:56:48;28.80;53.90
47174;DHT22;36730;49.036;9.094;2022-08-01T02:59:16;28.80;54.10
47174;DHT22;36730;49.036;9.094;2022-08-01T03:01:43;28.80;54.30
47174;DHT22;36730;49.036;9.094;2022-08-01T03:04:10;28.70;54.20
47174;DHT22;36730;49.036;9.094;2022-08-01T03:06:35;28.70;54.30
47174;DHT22;36730;49.036;9.094;2022-08-01T03:09:03;28.70;54.70
47174;DHT22;36730;49.036;9.094;2022-08-01T03:11:29;28.70;55.60
47174;DHT22;36730;49.036;9.094;2022-08-01T03:13:56;28.50;55.70
47174;DHT22;36730;49.036;9.094;2022-08-01T03:16:24;28.40;56.90
47174;DHT22;36730;49.036;9.094;2022-08-01T03:18:51;28.30;56.60
47174;DHT22;36730;49.036;9.094;2022-08-01T03:21:19;28.20;56.60
47174;DHT22;36730;49.036;9.094;2022-08-01T03:23:45;28.10;56.80
47174;DHT22;36730;49.036;9.094;2022-08-01T03:26:12;27.90;57.10
47174;DHT22;36730;49.036;9.094;2022-08-01T03:28:38;27.90;57.50
47174;DHT22;36730;49.036;9.094;2022-08-01T03:31:03;27.80;58.00
47174;DHT22;36730;49.036;9.094;2022-08-01T03:33:29;27.70;58.00
47174;DHT22;36730;49.036;9.094;2022-08-01T03:35:55;27.70;58.20
47174;DHT22;36730;49.036;9.094;2022-08-01T03:38:24;27.60;58.50
47174;DHT22;36730;49.036;9.094;2022-08-01T03:40:55;27.60;58.80
47174;DHT22;36730;49.036;9.094;2022-08-01T03:43:22;27.50;59.10
47174;DHT22;36730;49.036;9.094;2022-08-01T03:45:51;27.50;59.40
47174;DHT22;36730;49.036;9.094;2022-08-01T03:48:18;27.40;59.50
47174;DHT22;36730;49.036;9.094;2022-08-01T03:50:48;27.30;59.90
47174;DHT22;36730;49.036;9.094;2022-08-01T03:53:15;27.30;60.00
47174;DHT22;36730;49.036;9.094;2022-08-01T03:55:41;27.30;60.10
47174;DHT22;36730;49.036;9.094;2022-08-01T03:58:08;27.20;60.00
47174;DHT22;36730;49.036;9.094;2022-08-01T04:00:35;27.20;60.30
47174;DHT22;36730;49.036;9.094;2022-08-01T04:03:03;27.10;60.30
47174;DHT22;36730;49.036;9.094;2022-08-01T04:05:29;27.10;60.60
47174;DHT22;36730;49.036;9.094;2022-08-01T04:07:56;27.00;60.70
47174;DHT22;36730;49.036;9.094;2022-08-01T04:10:22;27.00;60.60
47174;DHT22;36730;49.036;9.094;2022-08-01T04:12:48;27.00;60.90
47174;DHT22;36730;49.036;9.094;2022-08-01T04:15:13;26.90;61.50
47174;DHT22;36730;49.036;9.094;2022-08-01T04:17:39;26.90;60.90
47174;DHT22;36730;49.036;9.094;2022-08-01T04:20:05;26.90;61.40
47174;DHT22;36730;49.036;9.094;2022-08-01T04:22:30;26.80;61.40
47174;DHT22;36730;49.036;9.094;2022-08-01T04:24:56;26.80;61.90
47174;DHT22;36730;49.036;9.094;2022-08-01T04:27:28;26.80;62.30
47174;DHT22;36730;49.036;9.094;2022-08-01T04:29:55;26.70;62.50
47174;DHT22;36730;49.036;9.094;2022-08-01T04:32:21;26.60;63.00
47174;DHT22;36730;49.036;9.094;2022-08-01T04:34:47;26.60;64.10
47174;DHT22;36730;49.036;9.094;2022-08-01T04:37:14;26.50;64.10
47174;DHT22;36730;49.036;9.094;2022-08-01T04:39:41;26.40;64.40
47174;DHT22;36730;49.036;9.094;2022-08-01T04:42:08;26.20;65.20
47174;DHT22;36730;49.036;9.094;2022-08-01T04:44:34;26.10;65.50
47174;DHT22;36730;49.036;9.094;2022-08-01T04:47:00;26.10;65.70
47174;DHT22;36730;49.036;9.094;2022-08-01T04:49:31;26.20;65.40
47174;DHT22;36730;49.036;9.094;2022-08-01T04:51:57;26.30;65.20
47174;DHT22;36730;49.036;9.094;2022-08-01T04:54:24;26.30;65.80
47174;DHT22;36730;49.036;9.094;2022-08-01T04:56:50;26.20;66.10
47174;DHT22;36730;49.036;9.094;2022-08-01T04:59:15;26.20;66.80
47174;DHT22;36730;49.036;9.094;2022-08-01T05:02:00;26.10;66.90
47174;DHT22;36730;49.036;9.094;2022-08-01T05:04:25;26.00;67.70
47174;DHT22;36730;49.036;9.094;2022-08-01T05:06:51;26.00;67.60
47174;DHT22;36730;49.036;9.094;2022-08-01T05:09:16;26.00;68.10
47174;DHT22;36730;49.036;9.094;2022-08-01T05:11:41;26.00;68.10
47174;DHT22;36730;49.036;9.094;2022-08-01T05:14:07;26.00;68.20
47174;DHT22;36730;49.036;9.094;2022-08-01T05:16:32;26.00;68.20
47174;DHT22;36730;49.036;9.094;2022-08-01T05:18:58;26.00;69.10
47174;DHT22;36730;49.036;9.094;2022-08-01T05:21:23;26.00;69.20
47174;DHT22;36730;49.036;9.094;2022-08-01T05:23:49;26.00;69.00
47174;DHT22;36730;49.036;9.094;2022-08-01T05:26:14;26.00;67.90
47174;DHT22;36730;49.036;9.094;2022-08-01T05:28:40;26.00;69.70
47174;DHT22;36730;49.036;9.094;2022-08-01T05:31:05;26.00;69.90
47174;DHT22;36730;49.036;9.094;2022-08-01T05:33:31;26.00;69.80
47174;DHT22;36730;49.036;9.094;2022-08-01T05:35:56;25.80;70.10
47174;DHT22;36730;49.036;9.094;2022-08-01T05:38:22;25.80;71.10
47174;DHT22;36730;49.036;9.094;2022-08-01T05:40:47;25.80;70.90
47174;DHT22;36730;49.036;9.094;2022-08-01T05:43:13;25.80;71.00
47174;DHT22;36730;49.036;9.094;2022-08-01T05:45:38;25.70;70.70
47174;DHT22;36730;49.036;9.094;2022-08-01T05:48:04;25.70;71.90
47174;DHT22;36730;49.036;9.094;2022-08-01T05:50:29;25.70;71.30
47174;DHT22;36730;49.036;9.094;2022-08-01T05:52:55;25.70;71.70
47174;DHT22;36730;49.036;9.094;2022-08-01T05:55:20;25.70;71.50
47174;DHT22;36730;49.036;9.094;2022-08-01T05:57:45;25.80;71.60
47174;DHT22;36730;49.036;9.094;2022-08-01T06:00:11;25.90;71.50
47174;DHT22;36730;49.036;9.094;2022-08-01T06:02:41;25.90;70.50
47174;DHT22;36730;49.036;9.094;2022-08-01T06:05:08;25.90;71.20
47174;DHT22;36730;49.036;9.094;2022-08-01T06:07:34;25.80;71.20
47174;DHT22;36730;49.036;9.094;2022-08-01T06:09:59;25.80;71.40
47174;DHT22;36730;49.036;9.094;2022-08-01T06:12:24;25.90;71.50
47174;DHT22;36730;49.036;9.094;2022-08-01T06:14:50;25.90;71.00
47174;DHT22;36730;49.036;9.094;2022-08-01T06:17:15;26.00;71.20
47174;DHT22;36730;49.036;9.094;2022-08-01T06:19:41;26.00;72.20
47174;DHT22;36730;49.036;9.094;2022-08-01T06:22:06;26.00;71.40
47174;DHT22;36730;49.036;9.094;2022-08-01T06:24:32;26.10;70.70
47174;DHT22;36730;49.036;9.094;2022-08-01T06:26:57;26.20;70.30
47174;DHT22;36730;49.036;9.094;2022-08-01T06:29:23;26.30;69.90
47174;DHT22;36730;49.036;9.094;2022-08-01T06:31:49;26.30;69.80
47174;DHT22;36730;49.036;9.094;2022-08-01T06:34:14;26.30;69.60
47174;DHT22;36730;49.036;9.094;2022-08-01T06:36:40;26.30;69.50
47174;DHT22;36730;49.036;9.094;2022-08-01T06:39:06;26.30;70.00
47174;DHT22;36730;49.036;9.094;2022-08-01T06:41:31;26.20;69.70
47174;DHT22;36730;49.036;9.094;2022-08-01T06:43:57;26.30;70.00
47174;DHT22;36730;49.036;9.094;2022-08-01T06:46:22;26.40;69.50
47174;DHT22;36730;49.036;9.094;2022-08-01T06:48:48;26.30;69.40
47174;DHT22;36730;49.036;9.094;2022-08-01T06:51:13;26.30;69.60
47174;DHT22;36730;49.036;9.094;2022-08-01T06:53:41;26.30;70.10
47174;DHT22;36730;49.036;9.094;2022-08-01T06:56:07;26.30;70.90
47174;DHT22;36730;49.036;9.094;2022-08-01T06:58:34;26.40;71.00
47174;DHT22;36730;49.036;9.094;2022-08-01T07:01:00;26.40;69.90
47174;DHT22;36730;49.036;9.094;2022-08-01T07:03:26;26.40;69.60
47174;DHT22;36730;49.036;9.094;2022-08-01T07:05:52;26.40;71.30
47174;DHT22;36730;49.036;9.094;2022-08-01T07:08:17;26.40;70.50
47174;DHT22;36730;49.036;9.094;2022-08-01T07:10:43;26.40;70.40
47174;DHT22;36730;49.036;9.094;2022-08-01T07:13:08;26.60;69.70
47174;DHT22;36730;49.036;9.094;2022-08-01T07:15:34;26.70;70.50
47174;DHT22;36730;49.036;9.094;2022-08-01T07:18:00;26.80;68.40
47174;DHT22;36730;49.036;9.094;2022-08-01T07:20:29;26.80;70.60
47174;DHT22;36730;49.036;9.094;2022-08-01T07:22:54;26.80;70.00
47174;DHT22;36730;49.036;9.094;2022-08-01T07:25:20;26.80;68.90
47174;DHT22;36730;49.036;9.094;2022-08-01T07:27:45;26.90;69.70
47174;DHT22;36730;49.036;9.094;2022-08-01T07:30:11;26.90;69.50
47174;DHT22;36730;49.036;9.094;2022-08-01T07:32:36;27.00;68.80
47174;DHT22;36730;49.036;9.094;2022-08-01T07:35:03;27.00;68.80
47174;DHT22;36730;49.036;9.094;2022-08-01T07:37:28;27.10;68.20
47174;DHT22;36730;49.036;9.094;2022-08-01T07:39:54;27.10;68.00
47174;DHT22;36730;49.036;9.094;2022-08-01T07:42:19;27.10;68.40
47174;DHT22;36730;49.036;9.094;2022-08-01T07:44:45;27.10;68.60
47174;DHT22;36730;49.036;9.094;2022-08-01T07:47:10;27.10;68.30
47174;DHT22;36730;49.036;9.094;2022-08-01T07:49:36;27.20;68.30
47174;DHT22;36730;49.036;9.094;2022-08-01T07:52:01;27.10;67.90
47174;DHT22;36730;49.036;9.094;2022-08-01T07:54:27;27.10;68.30
47174;DHT22;36730;49.036;9.094;2022-08-01T07:56:54;27.20;68.40
47174;DHT22;36730;49.036;9.094;2022-08-01T07:59:19;27.10;68.50
47174;DHT22;36730;49.036;9.094;2022-08-01T08:01:48;27.10;68.00
47174;DHT22;36730;49.036;9.094;2022-08-01T08:04:15;27.20;68.00
47174;DHT22;36730;49.036;9.094;2022-08-01T08:06:40;27.20;68.00
47174;DHT22;36730;49.036;9.094;2022-08-01T08:09:06;27.10;67.60
47174;DHT22;36730;49.036;9.094;2022-08-01T08:11:32;27.20;67.60
47174;DHT22;36730;49.036;9.094;2022-08-01T08:13:57;27.30;66.60
47174;DHT22;36730;49.036;9.094;2022-08-01T08:16:23;27.40;66.20
47174;DHT22;36730;49.036;9.094;2022-08-01T08:18:48;27.40;66.10
47174;DHT22;36730;49.036;9.094;2022-08-01T08:21:14;27.50;65.60
47174;DHT22;36730;49.036;9.094;2022-08-01T08:23:39;27.50;65.70
47174;DHT22;36730;49.036;9.094;2022-08-01T08:26:23;27.60;65.60
47174;DHT22;36730;49.036;9.094;2022-08-01T08:28:50;27.50;65.90
47174;DHT22;36730;49.036;9.094;2022-08-01T08:31:15;27.50;66.30
47174;DHT22;36730;49.036;9.094;2022-08-01T08:33:41;27.50;65.70
47174;DHT22;36730;49.036;9.094;2022-08-01T08:36:07;27.50;65.80
47174;DHT22;36730;49.036;9.094;2022-08-01T08:38:32;27.50;65.60
47174;DHT22;36730;49.036;9.094;2022-08-01T08:40:57;27.50;65.50
47174;DHT22;36730;49.036;9.094;2022-08-01T08:43:24;27.50;65.70
47174;DHT22;36730;49.036;9.094;2022-08-01T08:45:51;27.50;66.60
47174;DHT22;36730;49.036;9.094;2022-08-01T08:48:17;27.50;66.30
47174;DHT22;36730;49.036;9.094;2022-08-01T08:50:43;27.50;66.60
47174;DHT22;36730;49.036;9.094;2022-08-01T08:53:09;27.50;65.80
47174;DHT22;36730;49.036;9.094;2022-08-01T08:55:35;27.60;66.70
47174;DHT22;36730;49.036;9.094;2022-08-01T08:58:02;27.50;66.50
47174;DHT22;36730;49.036;9.094;2022-08-01T09:00:31;27.60;65.80
47174;DHT22;36730;49.036;9.094;2022-08-01T09:02:57;27.70;66.80
47174;DHT22;36730;49.036;9.094;2022-08-01T09:05:22;27.70;66.20
47174;DHT22;36730;49.036;9.094;2022-08-01T09:07:51;27.70;66.00
47174;DHT22;36730;49.036;9.094;2022-08-01T09:10:17;27.80;65.10
47174;DHT22;36730;49.036;9.094;2022-08-01T09:13:01;27.80;66.10
47174;DHT22;36730;49.036;9.094;2022-08-01T09:18:05;27.80;67.30
47174;DHT22;36730;49.036;9.094;2022-08-01T09:20:30;27.80;65.90
47174;DHT22;36730;49.036;9.094;2022-08-01T09:22:56;27.70;65.90
47174;DHT22;36730;49.036;9.094;2022-08-01T09:25:21;27.70;65.90
47174;DHT22;36730;49.036;9.094;2022-08-01T09:27:47;27.70;65.90
47174;DHT22;36730;49.036;9.094;2022-08-01T09:30:14;27.80;66.30
47174;DHT22;36730;49.036;9.094;2022-08-01T09:35:37;27.80;66.50
47174;DHT22;36730;49.036;9.094;2022-08-01T09:41:00;27.90;65.80
47174;DHT22;36730;49.036;9.094;2022-08-01T09:43:26;28.00;64.90
47174;DHT22;36730;49.036;9.094;2022-08-01T09:45:52;28.10;64.60
47174;DHT22;36730;49.036;9.094;2022-08-01T09:48:17;28.00;64.30
47174;DHT22;36730;49.036;9.094;2022-08-01T09:50:47;28.10;64.40
47174;DHT22;36730;49.036;9.094;2022-08-01T09:53:13;28.10;64.50
47174;DHT22;36730;49.036;9.094;2022-08-01T09:55:39;28.10;64.70
47174;DHT22;36730;49.036;9.094;2022-08-01T09:58:06;28.10;64.60
47174;DHT22;36730;49.036;9.094;2022-08-01T10:00:32;28.20;65.10
47174;DHT22;36730;49.036;9.094;2022-08-01T10:02:58;28.20;64.10
47174;DHT22;36730;49.036;9.094;2022-08-01T10:05:30;28.20;64.70
47174;DHT22;36730;49.036;9.094;2022-08-01T10:07:57;28.20;64.60
47174;DHT22;36730;49.036;9.094;2022-08-01T10:10:23;28.20;63.80
47174;DHT22;36730;49.036;9.094;2022-08-01T10:12:48;28.10;63.50
47174;DHT22;36730;49.036;9.094;2022-08-01T10:15:16;28.10;63.60
47174;DHT22;36730;49.036;9.094;2022-08-01T10:17:44;28.10;63.20
47174;DHT22;36730;49.036;9.094;2022-08-01T10:20:11;28.10;63.10
47174;DHT22;36730;49.036;9.094;2022-08-01T10:22:37;28.10;63.30
47174;DHT22;36730;49.036;9.094;2022-08-01T10:25:03;28.00;63.30
47174;DHT22;36730;49.036;9.094;2022-08-01T10:27:29;28.00;63.10
47174;DHT22;36730;49.036;9.094;2022-08-01T10:29:58;28.00;63.00
47174;DHT22;36730;49.036;9.094;2022-08-01T10:32:32;28.10;63.00
47174;DHT22;36730;49.036;9.094;2022-08-01T10:34:58;28.10;62.60
47174;DHT22;36730;49.036;9.094;2022-08-01T10:37:23;28.10;62.50
47174;DHT22;36730;49.036;9.094;2022-08-01T10:39:50;28.10;62.40
47174;DHT22;36730;49.036;9.094;2022-08-01T10:42:16;28.10;62.40
47174;DHT22;36730;49.036;9.094;2022-08-01T10:44:42;28.00;62.30
47174;DHT22;36730;49.036;9.094;2022-08-01T10:47:12;28.00;62.50
47174;DHT22;36730;49.036;9.094;2022-08-01T10:49:49;28.10;62.50
47174;DHT22;36730;49.036;9.094;2022-08-01T10:52:16;28.10;62.50
47174;DHT22;36730;49.036;9.094;2022-08-01T10:54:42;28.20;62.90
47174;DHT22;36730;49.036;9.094;2022-08-01T10:57:08;28.20;62.30
47174;DHT22;36730;49.036;9.094;2022-08-01T10:59:35;28.30;62.20
47174;DHT22;36730;49.036;9.094;2022-08-01T11:02:12;28.20;62.30
47174;DHT22;36730;49.036;9.094;2022-08-01T11:04:57;28.20;62.40
47174;DHT22;36730;49.036;9.094;2022-08-01T11:10:32;28.20;62.60
47174;DHT22;36730;49.036;9.094;2022-08-01T11:12:53;28.20;63.30
47174;DHT22;36730;49.036;9.094;2022-08-01T11:15:20;28.30;62.80
47174;DHT22;36730;49.036;9.094;2022-08-01T11:17:56;28.30;62.40
47174;DHT22;36730;49.036;9.094;2022-08-01T11:20:23;28.40;62.60
47174;DHT22;36730;49.036;9.094;2022-08-01T11:30:36;28.30;62.20
47174;DHT22;36730;49.036;9.094;2022-08-01T11:33:01;28.40;62.20
47174;DHT22;36730;49.036;9.094;2022-08-01T11:35:27;28.40;62.10
47174;DHT22;36730;49.036;9.094;2022-08-01T11:37:53;28.40;61.90
47174;DHT22;36730;49.036;9.094;2022-08-01T11:43:15;28.50;61.80
47174;DHT22;36730;49.036;9.094;2022-08-01T11:48:20;28.50;61.60
47174;DHT22;36730;49.036;9.094;2022-08-01T11:50:46;28.50;61.80
47174;DHT22;36730;49.036;9.094;2022-08-01T11:53:11;28.50;61.50
47174;DHT22;36730;49.036;9.094;2022-08-01T11:55:49;28.50;61.50
47174;DHT22;36730;49.036;9.094;2022-08-01T11:58:16;28.50;61.30
47174;DHT22;36730;49.036;9.094;2022-08-01T12:00:42;28.50;61.20
47174;DHT22;36730;49.036;9.094;2022-08-01T12:03:14;28.50;61.50
47174;DHT22;36730;49.036;9.094;2022-08-01T12:05:40;28.50;60.80
47174;DHT22;36730;49.036;9.094;2022-08-01T12:08:09;28.50;60.90
47174;DHT22;36730;49.036;9.094;2022-08-01T12:10:34;28.50;60.80
47174;DHT22;36730;49.036;9.094;2022-08-01T12:13:04;28.50;60.40
47174;DHT22;36730;49.036;9.094;2022-08-01T12:15:37;28.50;60.60
47174;DHT22;36730;49.036;9.094;2022-08-01T12:18:03;28.50;61.10
47174;DHT22;36730;49.036;9.094;2022-08-01T12:20:36;28.50;60.80
47174;DHT22;36730;49.036;9.094;2022-08-01T12:23:06;28.50;60.50
47174;DHT22;36730;49.036;9.094;2022-08-01T12:25:32;28.60;60.50
47174;DHT22;36730;49.036;9.094;2022-08-01T12:28:02;28.50;60.60
47174;DHT22;36730;49.036;9.094;2022-08-01T12:30:30;28.60;60.70
47174;DHT22;36730;49.036;9.094;2022-08-01T12:32:56;28.60;60.70
47174;DHT22;36730;49.036;9.094;2022-08-01T12:35:23;28.60;60.80
47174;DHT22;36730;49.036;9.094;2022-08-01T12:37:54;28.70;61.10
47174;DHT22;36730;49.036;9.094;2022-08-01T12:40:23;28.70;61.10
47174;DHT22;36730;49.036;9.094;2022-08-01T12:42:53;28.70;61.20
47174;DHT22;36730;49.036;9.094;2022-08-01T12:45:20;28.70;60.90
47174;DHT22;36730;49.036;9.094;2022-08-01T12:47:46;28.70;61.40
47174;DHT22;36730;49.036;9.094;2022-08-01T12:50:15;28.70;61.10
47174;DHT22;36730;49.036;9.094;2022-08-01T12:52:41;28.70;61.00
47174;DHT22;36730;49.036;9.094;2022-08-01T12:55:14;28.70;61.10
47174;DHT22;36730;49.036;9.094;2022-08-01T12:57:41;28.80;61.00
47174;DHT22;36730;49.036;9.094;2022-08-01T13:02:36;28.80;61.20
47174;DHT22;36730;49.036;9.094;2022-08-01T13:05:02;28.80;61.20
47174;DHT22;36730;49.036;9.094;2022-08-01T13:08:01;28.80;61.40
47174;DHT22;36730;49.036;9.094;2022-08-01T13:10:24;28.80;61.20
47174;DHT22;36730;49.036;9.094;2022-08-01T13:12:51;28.80;61.50
47174;DHT22;36730;49.036;9.094;2022-08-01T13:15:27;28.80;61.00
47174;DHT22;36730;49.036;9.094;2022-08-01T13:17:56;28.80;61.10
47174;DHT22;36730;49.036;9.094;2022-08-01T13:20:32;28.80;61.50
47174;DHT22;36730;49.036;9.094;2022-08-01T13:25:55;28.90;62.50
47174;DHT22;36730;49.036;9.094;2022-08-01T13:28:24;28.90;61.30
47174;DHT22;36730;49.036;9.094;2022-08-01T13:31:00;28.80;61.30
47174;DHT22;36730;49.036;9.094;2022-08-01T13:33:27;28.80;61.70
47174;DHT22;36730;49.036;9.094;2022-08-01T13:35:53;28.80;61.30
47174;DHT22;36730;49.036;9.094;2022-08-01T13:38:18;28.80;61.10
47174;DHT22;36730;49.036;9.094;2022-08-01T13:40:44;28.80;60.80
47174;DHT22;36730;49.036;9.094;2022-08-01T13:43:09;28.90;61.20
47174;DHT22;36730;49.036;9.094;2022-08-01T13:45:35;28.90;60.50
47174;DHT22;36730;49.036;9.094;2022-08-01T13:48:01;29.00;60.60
47174;DHT22;36730;49.036;9.094;2022-08-01T13:50:27;28.90;60.30
47174;DHT22;36730;49.036;9.094;2022-08-01T13:52:53;29.00;60.30
47174;DHT22;36730;49.036;9.094;2022-08-01T13:55:18;29.00;60.20
47174;DHT22;36730;49.036;9.094;2022-08-01T13:57:44;29.10;60.20
47174;DHT22;36730;49.036;9.094;2022-08-01T14:00:09;29.10;60.10
47174;DHT22;36730;49.036;9.094;2022-08-01T14:02:35;29.10;59.80
47174;DHT22;36730;49.036;9.094;2022-08-01T14:05:00;29.20;59.40
47174;DHT22;36730;49.036;9.094;2022-08-01T14:07:26;29.10;58.90
47174;DHT22;36730;49.036;9.094;2022-08-01T14:09:52;29.10;59.10
47174;DHT22;36730;49.036;9.094;2022-08-01T14:12:18;29.10;58.80
47174;DHT22;36730;49.036;9.094;2022-08-01T14:14:43;29.10;59.20
47174;DHT22;36730;49.036;9.094;2022-08-01T14:17:09;29.10;58.60
47174;DHT22;36730;49.036;9.094;2022-08-01T14:19:34;29.10;58.60
47174;DHT22;36730;49.036;9.094;2022-08-01T14:22:00;29.10;58.30
47174;DHT22;36730;49.036;9.094;2022-08-01T14:24:25;29.10;58.30
47174;DHT22;36730;49.036;9.094;2022-08-01T14:26:52;29.20;58.10
47174;DHT22;36730;49.036;9.094;2022-08-01T14:29:17;29.20;58.60
47174;DHT22;36730;49.036;9.094;2022-08-01T14:31:43;29.20;58.30
47174;DHT22;36730;49.036;9.094;2022-08-01T14:34:08;29.20;58.00
47174;DHT22;36730;49.036;9.094;2022-08-01T14:36:34;29.20;57.90
47174;DHT22;36730;49.036;9.094;2022-08-01T14:38:59;29.20;57.80
47174;DHT22;36730;49.036;9.094;2022-08-01T14:41:25;29.20;57.70
47174;DHT22;36730;49.036;9.094;2022-08-01T14:43:50;29.20;57.30
47174;DHT22;36730;49.036;9.094;2022-08-01T14:46:16;29.10;57.40
47174;DHT22;36730;49.036;9.094;2022-08-01T14:48:41;29.20;57.60
47174;DHT22;36730;49.036;9.094;2022-08-01T14:51:07;29.10;57.30
47174;DHT22;36730;49.036;9.094;2022-08-01T14:53:32;29.10;57.10
47174;DHT22;36730;49.036;9.094;2022-08-01T14:55:59;29.10;57.20
47174;DHT22;36730;49.036;9.094;2022-08-01T14:58:24;29.10;56.80
47174;DHT22;36730;49.036;9.094;2022-08-01T15:00:50;29.10;56.70
47174;DHT22;36730;49.036;9.094;2022-08-01T15:03:20;29.00;56.70
47174;DHT22;36730;49.036;9.094;2022-08-01T15:05:45;29.10;56.80
47174;DHT22;36730;49.036;9.094;2022-08-01T15:08:11;29.10;56.70
47174;DHT22;36730;49.036;9.094;2022-08-01T15:10:36;29.00;56.50
47174;DHT22;36730;49.036;9.094;2022-08-01T15:13:02;29.00;56.90
47174;DHT22;36730;49.036;9.094;2022-08-01T15:15:27;29.00;56.60
47174;DHT22;36730;49.036;9.094;2022-08-01T15:17:53;29.00;56.60
47174;DHT22;36730;49.036;9.094;2022-08-01T15:20:19;29.00;56.30
47174;DHT22;36730;49.036;9.094;2022-08-01T15:22:44;29.00;56.60
47174;DHT22;36730;49.036;9.094;2022-08-01T15:25:10;29.00;56.60
47174;DHT22;36730;49.036;9.094;2022-08-01T15:27:35;28.90;56.60
47174;DHT22;36730;49.036;9.094;2022-08-01T15:30:01;28.90;56.80
47174;DHT22;36730;49.036;9.094;2022-08-01T15:32:27;28.90;57.30
47174;DHT22;36730;49.036;9.094;2022-08-01T15:34:53;28.90;57.30
47174;DHT22;36730;49.036;9.094;2022-08-01T15:37:19;28.80;57.30
47174;DHT22;36730;49.036;9.094;2022-08-01T15:39:44;28.80;57.40
47174;DHT22;36730;49.036;9.094;2022-08-01T15:42:11;28.80;57.40
47174;DHT22;36730;49.036;9.094;2022-08-01T15:44:37;28.80;57.30
47174;DHT22;36730;49.036;9.094;2022-08-01T15:47:03;28.70;57.40
47174;DHT22;36730;49.036;9.094;2022-08-01T15:49:29;28.70;57.50
47174;DHT22;36730;49.036;9.094;2022-08-01T15:51:54;28.70;57.50
47174;DHT22;36730;49.036;9.094;2022-08-01T15:54:20;28.60;57.50
47174;DHT22;36730;49.036;9.094;2022-08-01T15:56:46;28.70;58.00
47174;DHT22;36730;49.036;9.094;2022-08-01T15:59:11;28.70;57.90
47174;DHT22;36730;49.036;9.094;2022-08-01T16:01:37;28.70;57.70
47174;DHT22;36730;49.036;9.094;2022-08-01T16:04:06;28.70;57.60
47174;DHT22;36730;49.036;9.094;2022-08-01T16:06:32;28.60;57.90
47174;DHT22;36730;49.036;9.094;2022-08-01T16:08:57;28.60;58.10
47174;DHT22;36730;49.036;9.094;2022-08-01T16:11:23;28.60;57.80